Paris, France

04:58 CET le 22 février 2017 (GMT +0100)
Charles de Gaulle | | Change Station

Alt. 358 ft 49.02 °N, 2.53 °E | Updated 28 minutes ago

Mostly Cloudy
Nuageux
52 ° F
Paraît 52 ° F
N
14
Vent Variable Vent de OSO

Aujourd'hui
Haut(e) -- | Bas -- ° F
--% Risque de précip.
Hier
Haut(e) -- | Bas -- ° F
Precip. -- pouce
Pression 30.04 pouce
Visibilité 6.2 Miles terrestres
Nuages Nuageux 2100 ft
Nuageux 2800 ft
Point de rosée 45 ° F
Humidité 76%
Précipitations 0.00 pouce
Profondeur de la couche neigeuse Non disponible.
7:45 AM 6:22 PM
Lune descendante, 20% visible
METAR LFPG 220330Z 25012KT 9999 BKN021 BKN028 11/07 Q1017 NOSIG
Pression 30.04 pouce
Visibilité 6.2 Miles terrestres
Nuages Nuageux 2100 ft
Nuageux 2800 ft
Point de rosée 45 ° F
Humidité 76%
Précipitations 0.00 pouce
Profondeur de la couche neigeuse Non disponible.
7:45 AM 6:22 PM
Lune descendante, 20% visible
METAR LFPG 220330Z 25012KT 9999 BKN021 BKN028 11/07 Q1017 NOSIG

Get Your Daily Forecast Email!

Thanks for signing up!

Be on the lookout for a verification email in your inbox.

You'll start receiving the daily forecast at 8 AM.

×

10-Day Weather Forecast

×

Almanac

Astronomie

Feb. 22, 2017 Lever Coucher
Temps réel
Crépuscule civil
Crépuscule nautique
Crépuscule astronomique
Lune
Durée de lumière visible
Longueur du jour
Tomorrow will be .
, % of the Moon is Illuminated

Extrêmes aujourd'hui

Country Highs Country Lows

Community

WunderPhotos

Upload Photos

1,962,540 Photos téléchargées !

WunderBlog® & News

Nearby

Qualité de l'air

  Qualité de l'air Indice de la qualité de l'air Polluant
Not available.

Épaisseur de neige

Station Depth Altitude

Activité sismique

Ville Distance Mag. Time & Date
Minimum magnitude displayed is 2.5.

Températures des eaux côtières

Lieu Température

Stations

Stations météo à proximité

Emplacement de la station Température Refroidissement éolien Point de rosée Humidité Vent Precip. Alt. Mise à jour Type